createdAt,value
2023-08-04T00:08:50.601Z,999.25
2023-08-04T00:18:51.211Z,999.46
2023-08-04T00:28:51.752Z,999.54
2023-08-04T00:38:52.314Z,999.61
2023-08-04T00:48:52.850Z,999.69
2023-08-04T00:59:01.457Z,999.77
2023-08-04T01:08:53.982Z,999.73
2023-08-04T01:18:54.561Z,999.84
2023-08-04T01:28:55.094Z,999.88
2023-08-04T01:38:55.666Z,1000.22
2023-08-04T01:48:56.213Z,1000.55
2023-08-04T01:58:56.788Z,1000.84
2023-08-04T02:08:57.334Z,1001.01
2023-08-04T02:18:57.904Z,1001.13
2023-08-04T02:28:58.462Z,1001.25
2023-08-04T02:38:59.045Z,1001.32
2023-08-04T02:48:59.585Z,1001.33
2023-08-04T02:59:00.172Z,1001.34
2023-08-04T03:09:00.698Z,1001.38
2023-08-04T03:19:01.238Z,1001.42
2023-08-04T03:29:01.731Z,1001.49
2023-08-04T03:39:02.286Z,1001.55
2023-08-04T03:49:02.802Z,1001.72
2023-08-04T03:59:03.292Z,1001.77
2023-08-04T04:09:03.778Z,1001.81
2023-08-04T04:19:04.305Z,1001.91
2023-08-04T04:29:04.786Z,1001.98
2023-08-04T04:39:05.342Z,1002.26
2023-08-04T04:49:05.821Z,1002.50
2023-08-04T04:59:06.331Z,1002.58
2023-08-04T05:09:06.829Z,1002.73
2023-08-04T05:19:07.350Z,1002.89
2023-08-04T05:29:07.828Z,1002.95
2023-08-04T05:39:08.345Z,1003.02
2023-08-04T05:49:08.848Z,1003.14
2023-08-04T05:59:09.342Z,1003.37
2023-08-04T06:09:09.816Z,1003.42
2023-08-04T06:19:10.342Z,1003.58
2023-08-04T06:29:10.843Z,1003.64
2023-08-04T06:39:11.379Z,1003.83
2023-08-04T06:49:11.861Z,1004.01
2023-08-04T06:59:19.393Z,1004.17
2023-08-04T07:09:12.849Z,1004.21
2023-08-04T07:19:13.413Z,1004.22
2023-08-04T07:29:13.880Z,1004.43
2023-08-04T07:39:14.444Z,1004.54
2023-08-04T07:49:14.897Z,1004.56
2023-08-04T07:59:15.424Z,1004.72
2023-08-04T08:09:15.901Z,1004.77
2023-08-04T08:19:16.419Z,1004.86
2023-08-04T08:29:17.346Z,1004.96
2023-08-04T08:39:17.809Z,1005.17
2023-08-04T08:49:18.287Z,1005.21
2023-08-04T08:59:18.815Z,1005.22
2023-08-04T09:09:19.287Z,1005.26
2023-08-04T09:19:19.807Z,1005.31
2023-08-04T09:29:20.294Z,1005.45
2023-08-04T09:39:20.835Z,1005.52
2023-08-04T09:49:21.316Z,1005.59
2023-08-04T09:59:21.845Z,1005.49
2023-08-04T10:09:22.331Z,1005.49
2023-08-04T10:19:22.881Z,1005.64
2023-08-04T10:29:23.372Z,1005.81
2023-08-04T10:39:23.898Z,1005.76
2023-08-04T10:49:24.394Z,1005.85
2023-08-04T10:59:24.910Z,1005.74
2023-08-04T11:09:25.389Z,1005.70
2023-08-04T11:19:25.921Z,1005.57
2023-08-04T11:29:26.443Z,1005.43
2023-08-04T11:39:26.932Z,1005.58
2023-08-04T11:49:27.405Z,1005.63
2023-08-04T11:59:28.003Z,1005.84
2023-08-04T12:09:28.478Z,1005.98
2023-08-04T12:19:29.019Z,1006.10
2023-08-04T12:29:29.651Z,1006.15
2023-08-04T12:39:30.187Z,1006.06
2023-08-04T12:49:30.670Z,1006.23
2023-08-04T12:59:38.183Z,1006.50
2023-08-04T13:09:31.835Z,1006.49
2023-08-04T13:19:32.336Z,1006.45
2023-08-04T13:29:32.829Z,1006.52
2023-08-04T13:39:33.394Z,1006.61
2023-08-04T13:49:33.886Z,1006.41
2023-08-04T13:59:34.407Z,1006.28
2023-08-04T14:09:34.888Z,1006.45
2023-08-04T14:19:35.409Z,1006.32
2023-08-04T14:29:36.146Z,1006.43
2023-08-04T14:39:36.714Z,1006.56
2023-08-04T14:49:37.196Z,1006.61
2023-08-04T14:59:37.727Z,1006.68
2023-08-04T15:09:38.232Z,1006.71
2023-08-04T15:19:39.301Z,1006.58
2023-08-04T15:29:39.290Z,1006.35
2023-08-04T15:39:39.821Z,1006.38
2023-08-04T15:49:40.311Z,1006.40
2023-08-04T15:59:40.956Z,1006.55
2023-08-04T16:09:41.401Z,1006.55
2023-08-04T16:19:41.938Z,1006.49
2023-08-04T16:29:42.415Z,1006.45
2023-08-04T16:39:42.957Z,1006.48
2023-08-04T16:49:43.452Z,1006.54
2023-08-04T16:59:43.960Z,1006.60
2023-08-04T17:09:44.446Z,1006.54
2023-08-04T17:19:45.061Z,1006.51
2023-08-04T17:29:45.591Z,1006.52
2023-08-04T17:39:46.117Z,1006.58
2023-08-04T17:49:46.601Z,1006.65
2023-08-04T17:59:47.123Z,1006.68
2023-08-04T18:09:47.601Z,1006.83
2023-08-04T18:19:48.124Z,1007.05
2023-08-04T18:29:48.600Z,1007.16
2023-08-04T18:39:49.157Z,1007.37
2023-08-04T18:49:49.651Z,1007.47
2023-08-04T18:59:57.172Z,1007.68
2023-08-04T19:09:50.638Z,1007.86
2023-08-04T19:19:51.191Z,1007.89
2023-08-04T19:29:51.699Z,1007.91
2023-08-04T19:39:52.393Z,1008.00
2023-08-04T19:49:52.974Z,1008.06
2023-08-04T19:59:53.577Z,1008.18
2023-08-04T20:09:54.107Z,1008.16
2023-08-04T20:19:54.710Z,1008.15
2023-08-04T20:29:55.286Z,1008.16
2023-08-04T20:39:55.859Z,1008.21
2023-08-04T20:49:56.379Z,1008.26
2023-08-04T20:59:56.941Z,1008.36
2023-08-04T21:09:57.456Z,1008.40
2023-08-04T21:19:58.040Z,1008.51
2023-08-04T21:29:58.572Z,1008.53
2023-08-04T21:39:59.157Z,1008.48
2023-08-04T21:49:59.689Z,1008.39
2023-08-04T22:00:00.260Z,1008.36
2023-08-04T22:10:00.882Z,1008.41
2023-08-04T22:20:01.512Z,1008.48
2023-08-04T22:30:02.093Z,1008.44
2023-08-04T22:40:02.664Z,1008.67
2023-08-04T22:50:03.210Z,1008.73
2023-08-04T23:00:03.806Z,1008.84
2023-08-04T23:10:04.343Z,1008.83
2023-08-04T23:20:04.925Z,1008.78
2023-08-04T23:30:05.460Z,1008.74
2023-08-04T23:40:06.064Z,1008.66
2023-08-04T23:50:06.578Z,1008.67
